Time;durP1;ratioP1;P1;durP2;ratioP2;P2;SDS_P1;SDS_P2;PMS_P1;PMS_P2;Temp;Humidity;BMP_temperature;BMP_pressure;BME280_temperature;BME280_humidity;BME280_pressure;Samples;Min_cycle;Max_cycle;Signal;HPM_P1;HPM_P2
2023/09/09 00:00:54;;;;;;;11.70;10.03;;;;;;;18.79;100.00;150767.91;4977824;28;20226;-58
2023/09/09 00:03:22;;;;;;;11.70;10.03;;;;;;;18.71;100.00;150749.16;4981252;28;21775;-55
2023/09/09 00:05:48;;;;;;;11.63;9.70;;;;;;;18.76;100.00;150759.19;4981528;28;20283;-60
2023/09/09 00:08:16;;;;;;;14.73;9.17;;;;;;;18.71;100.00;150749.16;4983120;28;20308;-61
2023/09/09 00:10:43;;;;;;;14.23;9.83;;;;;;;18.68;100.00;150740.38;4985029;28;20254;-61
2023/09/09 00:13:10;;;;;;;12.77;9.63;;;;;;;18.68;100.00;150741.66;4983044;28;20246;-60
2023/09/09 00:15:36;;;;;;;10.93;9.30;;;;;;;18.67;100.00;150739.16;4987409;28;20234;-60
2023/09/09 00:18:03;;;;;;;11.30;10.07;;;;;;;18.63;100.00;150729.13;4986513;28;20225;-60
2023/09/09 00:20:30;;;;;;;9.90;8.83;;;;;;;18.63;100.00;150727.84;4987360;28;20217;-61
2023/09/09 00:22:57;;;;;;;10.60;8.83;;;;;;;18.56;100.00;150711.59;4990867;28;20237;-60
2023/09/09 00:25:25;;;;;;;11.70;9.80;;;;;;;18.52;100.00;150702.88;4985092;28;20559;-60
2023/09/09 00:27:52;;;;;;;11.97;9.27;;;;;;;18.55;100.00;150709.09;4977238;28;20222;-60
2023/09/09 00:30:18;;;;;;;10.80;9.53;;;;;;;18.55;100.00;150710.34;4989863;28;20241;-60
2023/09/09 00:32:45;;;;;;;15.63;8.97;;;;;;;18.49;100.00;150695.38;4985549;28;20233;-60
2023/09/09 00:35:12;;;;;;;13.20;9.60;;;;;;;18.48;100.00;150692.84;4990426;28;20379;-60
2023/09/09 00:37:38;;;;;;;11.03;9.30;;;;;;;18.48;100.00;150692.84;4985984;28;20221;-60
2023/09/09 00:40:06;;;;;;;10.70;9.47;;;;;;;18.43;100.00;150681.56;4991233;28;20242;-59
2023/09/09 00:42:35;;;;;;;10.30;9.30;;;;;;;18.46;100.00;150686.56;4988883;28;20231;-60
2023/09/09 00:45:02;;;;;;;10.77;9.60;;;;;;;18.41;100.00;150675.34;4981327;28;20234;-60
2023/09/09 00:47:29;;;;;;;11.17;9.97;;;;;;;18.40;100.00;150674.06;4981982;28;20235;-60
2023/09/09 00:49:55;;;;;;;11.13;9.17;;;;;;;18.37;100.00;150666.56;4986724;28;20276;-60
2023/09/09 00:52:22;;;;;;;10.40;8.40;;;;;;;18.29;100.00;150646.53;4977128;28;20727;-60
2023/09/09 00:54:49;;;;;;;11.30;9.60;;;;;;;18.38;100.00;150669.06;4986398;28;20218;-60
2023/09/09 00:57:17;;;;;;;11.63;9.67;;;;;;;18.37;100.00;150665.31;4986445;28;20228;-60
2023/09/09 00:59:47;;;;;;;11.80;9.87;;;;;;;18.26;100.00;150639.00;4990274;28;20221;-60
2023/09/09 01:02:14;;;;;;;10.50;9.00;;;;;;;18.25;100.00;150636.50;4979508;28;20236;-60
2023/09/09 01:04:40;;;;;;;11.73;9.40;;;;;;;18.25;100.00;150637.78;4990691;28;20691;-60
2023/09/09 01:07:08;;;;;;;13.27;8.87;;;;;;;18.32;100.00;150654.03;4988045;28;20707;-60
2023/09/09 01:09:34;;;;;;;12.53;9.93;;;;;;;18.32;100.00;150652.81;4996945;28;20229;-60
2023/09/09 01:12:03;;;;;;;12.83;9.77;;;;;;;18.26;100.00;150639.00;4975573;28;20266;-60
2023/09/09 01:14:29;;;;;;;13.23;9.30;;;;;;;18.21;100.00;150627.78;4977786;28;20602;-60
2023/09/09 01:16:59;;;;;;;10.13;9.00;;;;;;;18.30;100.00;150649.03;4985348;28;20217;-60
2023/09/09 01:19:31;;;;;;;11.20;9.60;;;;;;;18.25;100.00;150636.50;4987362;28;20581;-60
2023/09/09 01:22:02;;;;;;;12.50;9.67;;;;;;;18.23;100.00;150631.50;4983761;28;20582;-60
2023/09/09 01:24:30;;;;;;;13.13;9.07;;;;;;;18.25;100.00;150636.50;4986584;28;20229;-60
2023/09/09 01:26:57;;;;;;;10.27;8.97;;;;;;;18.30;100.00;150649.03;4990210;28;20225;-60
2023/09/09 01:29:24;;;;;;;12.40;9.83;;;;;;;18.26;100.00;150640.28;4977570;28;20317;-59
2023/09/09 01:31:50;;;;;;;12.03;9.33;;;;;;;18.20;100.00;150625.28;4976455;28;20318;-60
2023/09/09 01:34:17;;;;;;;10.37;9.27;;;;;;;18.13;100.00;150608.97;4990647;28;20226;-60
2023/09/09 01:36:44;;;;;;;11.97;9.70;;;;;;;18.20;100.00;150624.00;4990804;28;20229;-60
2023/09/09 01:39:11;;;;;;;13.50;8.50;;;;;;;18.11;100.00;150602.75;4988196;28;20244;-59
2023/09/09 01:41:39;;;;;;;13.13;9.30;;;;;;;18.04;100.00;150586.47;4991204;28;20296;-60
2023/09/09 01:44:07;;;;;;;12.60;9.20;;;;;;;18.02;100.00;150580.22;4973011;28;20231;-60
2023/09/09 01:46:34;;;;;;;12.77;9.70;;;;;;;17.97;100.00;150568.94;4988321;28;20552;-59
2023/09/09 01:49:03;;;;;;;11.47;9.13;;;;;;;17.89;100.00;150550.16;4981580;28;20217;-60
2023/09/09 01:51:32;;;;;;;10.67;9.17;;;;;;;17.85;100.00;150540.13;4991516;28;20237;-59
2023/09/09 01:53:58;;;;;;;12.43;9.97;;;;;;;17.80;100.00;150527.63;4972081;28;20307;-60
2023/09/09 01:56:25;;;;;;;11.63;9.80;;;;;;;17.83;100.00;150535.13;4993001;28;20213;-60
2023/09/09 01:58:53;;;;;;;11.30;9.53;;;;;;;17.89;100.00;150548.91;4987692;28;20225;-60
2023/09/09 02:01:20;;;;;;;11.23;9.67;;;;;;;17.83;100.00;150535.13;4987294;28;20236;-60
2023/09/09 02:03:47;;;;;;;10.37;9.37;;;;;;;17.76;100.00;150517.63;4976704;28;20764;-60
2023/09/09 02:06:14;;;;;;;11.80;9.97;;;;;;;17.70;100.00;150503.88;4988610;28;20289;-62
2023/09/09 02:08:42;;;;;;;12.33;9.47;;;;;;;17.66;100.00;150495.09;4986953;28;20714;-60
2023/09/09 02:11:09;;;;;;;11.57;9.30;;;;;;;17.65;100.00;150492.59;4980455;28;20573;-60
2023/09/09 02:13:36;;;;;;;11.00;9.13;;;;;;;17.76;100.00;150517.63;4992873;28;20324;-60
2023/09/09 02:16:07;;;;;;;17.10;10.40;;;;;;;17.74;100.00;150512.59;4985957;28;20234;-59
2023/09/09 02:18:37;;;;;;;12.97;10.70;;;;;;;17.69;100.00;150502.59;4982616;28;20218;-60
2023/09/09 02:21:05;;;;;;;11.63;9.93;;;;;;;17.69;100.00;150502.59;4988180;28;20285;-59
2023/09/09 02:23:31;;;;;;;14.53;9.73;;;;;;;17.67;100.00;150497.59;4970308;28;20227;-60
2023/09/09 02:25:58;;;;;;;10.73;9.63;;;;;;;17.65;100.00;150491.38;4984440;28;20272;-60
2023/09/09 02:28:25;;;;;;;12.87;9.53;;;;;;;17.75;100.00;150515.13;4991975;28;20229;-60
2023/09/09 02:30:51;;;;;;;13.13;9.77;;;;;;;17.71;100.00;150507.59;5001865;28;20238;-60
2023/09/09 02:33:19;;;;;;;11.27;9.53;;;;;;;17.71;100.00;150506.38;4988075;28;20265;-59
2023/09/09 02:35:46;;;;;;;11.10;9.33;;;;;;;17.65;100.00;150491.38;4990347;28;20230;-59
2023/09/09 02:38:12;;;;;;;10.53;9.33;;;;;;;17.64;100.00;150490.09;4993094;28;20326;-59
2023/09/09 02:40:39;;;;;;;11.47;9.23;;;;;;;17.65;100.00;150492.59;4968924;28;20710;-60
2023/09/09 02:43:06;;;;;;;19.03;10.30;;;;;;;17.71;100.00;150506.38;4987488;28;20310;-60
2023/09/09 02:45:32;;;;;;;16.33;10.23;;;;;;;17.64;100.00;150490.09;4989882;28;20843;-60
2023/09/09 02:47:59;;;;;;;11.90;10.07;;;;;;;17.65;100.00;150492.59;4991786;28;20880;-60
2023/09/09 02:50:27;;;;;;;12.93;10.00;;;;;;;17.62;100.00;150483.84;4993609;28;20232;-60
2023/09/09 02:52:54;;;;;;;11.13;9.67;;;;;;;17.57;100.00;150472.56;4988416;28;20342;-60
2023/09/09 02:55:21;;;;;;;18.27;10.33;;;;;;;17.57;100.00;150472.56;4986114;28;20221;-59
2023/09/09 02:57:49;;;;;;;11.93;10.07;;;;;;;17.60;100.00;150478.84;4987951;28;20232;-60
2023/09/09 03:00:16;;;;;;;15.13;10.17;;;;;;;17.52;100.00;150460.06;4987861;28;20602;-60
2023/09/09 03:02:43;;;;;;;14.57;10.20;;;;;;;17.54;100.00;150466.34;4990457;28;20269;-59
2023/09/09 03:05:11;;;;;;;13.60;10.87;;;;;;;17.53;100.00;150462.56;4989507;28;20234;-60
2023/09/09 03:07:40;;;;;;;14.13;10.27;;;;;;;17.54;100.00;150465.06;4988607;28;20232;-60
2023/09/09 03:10:08;;;;;;;10.47;9.37;;;;;;;17.60;100.00;150478.84;4980024;28;20687;-60
2023/09/09 03:12:34;;;;;;;13.10;9.73;;;;;;;17.48;100.00;150451.34;5002546;28;20234;-60
2023/09/09 03:15:05;;;;;;;13.47;9.77;;;;;;;17.44;100.00;150440.09;4980842;28;20228;-60
2023/09/09 03:17:32;;;;;;;12.97;10.50;;;;;;;17.47;100.00;150447.59;4987473;28;20243;-60
2023/09/09 03:19:59;;;;;;;14.50;9.80;;;;;;;17.45;100.00;150443.81;4972966;28;20669;-60
2023/09/09 03:22:26;;;;;;;17.13;9.93;;;;;;;17.38;100.00;150426.31;4986810;28;20226;-59
2023/09/09 03:24:54;;;;;;;11.70;10.00;;;;;;;17.35;100.00;150420.09;4974763;28;20222;-59
2023/09/09 03:27:21;;;;;;;10.73;9.50;;;;;;;17.33;100.00;150413.81;4987263;28;20241;-59
2023/09/09 03:29:48;;;;;;;11.20;9.40;;;;;;;17.30;100.00;150406.31;4989807;28;20755;-59
2023/09/09 03:32:15;;;;;;;13.20;10.30;;;;;;;17.29;100.00;150403.78;5189605;23;20219;-64
2023/09/09 03:34:41;;;;;;;12.93;10.23;;;;;;;17.32;100.00;150411.31;4987714;28;20228;-64
2023/09/09 03:37:08;;;;;;;10.57;9.43;;;;;;;17.26;100.00;150398.78;4984561;28;20237;-64
2023/09/09 03:39:35;;;;;;;12.30;10.03;;;;;;;17.21;100.00;150386.28;4986995;28;20226;-64
2023/09/09 03:42:03;;;;;;;11.77;10.27;;;;;;;17.15;100.00;150371.28;4975536;28;20243;-64
2023/09/09 03:44:30;;;;;;;11.98;10.32;;;;;;;17.12;100.00;150363.78;4959932;28;21046;-64
2023/09/09 03:46:56;;;;;;;11.07;9.37;;;;;;;17.11;100.00;150361.28;4984546;28;20217;-64
2023/09/09 03:49:23;;;;;;;10.40;9.30;;;;;;;17.06;100.00;150350.03;4987102;28;20725;-64
2023/09/09 03:51:50;;;;;;;11.63;10.03;;;;;;;17.01;100.00;150336.25;4957681;28;20246;-64
2023/09/09 03:54:16;;;;;;;13.67;10.47;;;;;;;17.01;100.00;150336.25;4961163;28;20220;-64
2023/09/09 03:56:43;;;;;;;14.77;10.30;;;;;;;17.02;100.00;150338.75;4961048;28;20214;-64
2023/09/09 03:59:11;;;;;;;12.30;10.10;;;;;;;16.95;100.00;150322.47;4983922;28;20325;-64
2023/09/09 04:01:39;;;;;;;10.73;9.63;;;;;;;16.89;100.00;150307.47;4986342;28;20226;-64
2023/09/09 04:04:07;;;;;;;14.30;11.03;;;;;;;16.83;100.00;150294.97;4984841;28;20240;-64
2023/09/09 04:06:34;;;;;;;12.63;10.57;;;;;;;16.85;100.00;150297.47;4986286;28;20719;-64
2023/09/09 04:09:04;;;;;;;12.53;10.83;;;;;;;16.80;100.00;150287.47;4959367;28;20696;-64
2023/09/09 04:11:31;;;;;;;13.27;10.53;;;;;;;16.77;100.00;150279.97;4986915;28;20221;-64
2023/09/09 04:13:59;;;;;;;14.13;11.80;;;;;;;16.77;100.00;150278.75;4958919;28;20222;-64
2023/09/09 04:16:27;;;;;;;13.50;10.20;;;;;;;16.75;100.00;150273.75;4986321;28;20614;-64
2023/09/09 04:18:54;;;;;;;11.53;10.33;;;;;;;16.71;100.00;150263.72;4984348;28;20228;-64
2023/09/09 04:21:20;;;;;;;13.27;10.83;;;;;;;16.70;100.00;150262.47;4986862;28;20774;-64
2023/09/09 04:23:47;;;;;;;13.67;10.73;;;;;;;16.73;100.00;150269.97;4967992;28;20236;-64
2023/09/09 04:26:14;;;;;;;14.57;11.03;;;;;;;16.72;100.00;150266.22;4960657;28;20226;-64
2023/09/09 04:28:41;;;;;;;12.60;10.63;;;;;;;16.69;100.00;150259.97;4955078;28;20385;-64
2023/09/09 04:31:08;;;;;;;11.23;10.03;;;;;;;16.66;100.00;150253.72;4983995;28;20395;-64
2023/09/09 04:33:38;;;;;;;12.87;10.67;;;;;;;16.65;100.00;150251.22;4985967;28;20240;-64
2023/09/09 04:36:06;;;;;;;15.07;11.60;;;;;;;16.67;100.00;150254.97;4983896;28;20628;-64
2023/09/09 04:38:32;;;;;;;15.27;10.90;;;;;;;16.65;100.00;150251.22;4961444;28;20232;-64
2023/09/09 04:40:59;;;;;;;15.53;11.20;;;;;;;16.61;100.00;150239.94;4984217;28;20232;-64
2023/09/09 04:43:27;;;;;;;12.67;11.33;;;;;;;16.59;100.00;150236.22;4959786;28;20580;-64
2023/09/09 04:45:54;;;;;;;11.67;10.33;;;;;;;16.61;100.00;150239.94;4984663;28;20689;-64
2023/09/09 04:48:20;;;;;;;13.67;11.40;;;;;;;16.58;100.00;150233.72;4985940;28;20703;-64
2023/09/09 04:50:50;;;;;;;15.30;11.00;;;;;;;16.54;100.00;150223.72;4953199;28;20221;-64
2023/09/09 04:53:17;;;;;;;12.80;10.93;;;;;;;16.56;100.00;150228.72;4969411;28;20241;-64
2023/09/09 04:55:44;;;;;;;14.60;11.23;;;;;;;16.57;100.00;150231.22;4962488;28;20257;-64
2023/09/09 04:58:11;;;;;;;13.77;11.23;;;;;;;16.66;100.00;150252.47;4983463;28;20268;-64
2023/09/09 05:00:38;;;;;;;13.10;11.80;;;;;;;16.66;100.00;150253.72;4985895;28;20235;-64
2023/09/09 05:03:05;;;;;;;11.53;10.20;;;;;;;16.70;100.00;150261.22;4983456;28;20243;-64
2023/09/09 05:05:32;;;;;;;14.63;12.17;;;;;;;16.68;100.00;150258.72;4986101;28;20221;-64
2023/09/09 05:08:00;;;;;;;14.60;10.53;;;;;;;16.72;100.00;150267.47;4957227;28;20229;-64
2023/09/09 05:10:29;;;;;;;12.97;10.97;;;;;;;16.74;100.00;150271.22;4960616;28;20240;-64
2023/09/09 05:12:56;;;;;;;14.93;11.30;;;;;;;16.79;100.00;150283.75;4955265;28;20232;-63
2023/09/09 05:15:23;;;;;;;13.47;10.53;;;;;;;16.80;100.00;150286.25;4985376;28;20225;-63
2023/09/09 05:17:50;;;;;;;12.87;10.60;;;;;;;16.80;100.00;150287.47;4959496;28;20217;-63
2023/09/09 05:20:17;;;;;;;13.07;11.10;;;;;;;16.82;100.00;150291.25;4986565;28;20224;-63
2023/09/09 05:22:43;;;;;;;15.00;11.20;;;;;;;16.85;100.00;150298.75;4985544;28;20232;-63
2023/09/09 05:25:11;;;;;;;12.20;10.93;;;;;;;16.93;100.00;150317.47;4957721;28;20639;-63
2023/09/09 05:27:38;;;;;;;14.23;10.77;;;;;;;16.94;100.00;150321.25;4984889;28;20235;-63
2023/09/09 05:30:06;;;;;;;14.70;10.87;;;;;;;16.98;100.00;150330.03;4957218;28;20254;-63
2023/09/09 05:32:34;;;;;;;11.57;10.13;;;;;;;16.99;100.00;150332.53;4968989;28;20693;-63
2023/09/09 05:35:00;;;;;;;12.87;11.43;;;;;;;17.07;100.00;150351.25;4958022;28;20287;-63
2023/09/09 05:37:28;;;;;;;14.70;11.13;;;;;;;17.10;100.00;150360.03;4983949;28;20643;-63
2023/09/09 05:39:55;;;;;;;15.50;11.30;;;;;;;17.11;100.00;150361.28;4982273;28;20299;-63
2023/09/09 05:42:23;;;;;;;15.10;11.07;;;;;;;17.10;100.00;150360.03;4985053;28;20226;-63
2023/09/09 05:44:50;;;;;;;12.00;10.70;;;;;;;17.14;100.00;150367.56;4982458;28;20222;-63
2023/09/09 05:47:17;;;;;;;14.63;11.33;;;;;;;17.16;100.00;150373.78;4986071;28;20221;-64
2023/09/09 05:49:44;;;;;;;12.83;11.37;;;;;;;17.19;100.00;150380.06;4963126;28;20226;-63
2023/09/09 05:52:11;;;;;;;16.60;11.97;;;;;;;17.21;100.00;150386.28;4982328;28;20335;-63
2023/09/09 05:54:38;;;;;;;15.10;12.03;;;;;;;17.29;100.00;150403.78;4984944;28;20233;-63
2023/09/09 05:57:07;;;;;;;12.27;10.93;;;;;;;17.33;100.00;150413.81;4954647;28;20249;-63
2023/09/09 05:59:36;;;;;;;13.80;10.90;;;;;;;17.38;100.00;150426.31;4984165;28;20242;-63
2023/09/09 06:02:04;;;;;;;13.13;11.10;;;;;;;17.41;100.00;150433.81;4982298;28;20236;-63
2023/09/09 06:04:31;;;;;;;12.37;10.87;;;;;;;17.46;100.00;150446.31;4985600;28;21217;-63
2023/09/09 06:06:58;;;;;;;15.73;11.13;;;;;;;17.48;100.00;150451.34;4982694;28;20283;-63
2023/09/09 06:09:25;;;;;;;14.07;10.60;;;;;;;17.54;100.00;150465.06;4984350;28;20241;-63
2023/09/09 06:11:51;;;;;;;14.30;11.23;;;;;;;17.56;100.00;150471.34;4956607;28;20254;-63
2023/09/09 06:14:18;;;;;;;16.60;11.90;;;;;;;17.64;100.00;150488.88;4957989;28;20230;-63
2023/09/09 06:16:46;;;;;;;29.43;11.67;;;;;;;17.64;100.00;150490.09;4984188;28;20624;-64
2023/09/09 06:19:13;;;;;;;13.03;11.60;;;;;;;17.67;100.00;150497.59;4982011;28;20230;-64
2023/09/09 06:21:40;;;;;;;12.87;10.33;;;;;;;17.74;100.00;150513.88;4984576;28;20324;-64
2023/09/09 06:24:08;;;;;;;15.90;10.43;;;;;;;17.74;100.00;150513.88;4955644;28;20231;-64
2023/09/09 06:26:35;;;;;;;13.77;11.57;;;;;;;17.75;100.00;150516.38;4983405;28;20717;-64
2023/09/09 06:29:07;;;;;;;23.83;11.37;;;;;;;17.82;100.00;150532.63;4981351;28;20233;-64
2023/09/09 06:31:34;;;;;;;13.73;11.30;;;;;;;17.84;100.00;150538.91;4959764;28;20819;-64
2023/09/09 06:34:03;;;;;;;13.73;11.13;;;;;;;17.90;100.00;150551.41;4954354;28;20245;-64
2023/09/09 06:36:30;;;;;;;15.70;11.17;;;;;;;17.93;100.00;150558.94;4984565;28;20296;-64
2023/09/09 06:38:58;;;;;;;14.10;11.60;;;;;;;17.97;100.00;150568.94;4981499;28;20309;-64
2023/09/09 06:41:25;;;;;;;16.13;10.50;;;;;;;18.05;100.00;150587.72;4985490;28;20225;-64
2023/09/09 06:43:51;;;;;;;12.10;10.73;;;;;;;18.09;100.00;150598.97;4981468;28;20231;-64
2023/09/09 06:46:18;;;;;;;12.33;11.03;;;;;;;18.14;100.00;150611.47;4984605;28;20236;-64
2023/09/09 06:48:45;;;;;;;13.10;10.63;;;;;;;18.24;100.00;150635.28;4983297;28;20750;-64
2023/09/09 06:51:13;;;;;;;13.57;10.73;;;;;;;18.28;100.00;150644.03;4981748;28;20238;-64
2023/09/09 06:53:39;;;;;;;13.00;10.80;;;;;;;18.35;100.00;150660.31;4984335;28;20222;-64
2023/09/09 06:56:06;;;;;;;14.37;10.97;;;;;;;18.44;100.00;150682.84;4981763;28;20597;-64
2023/09/09 06:58:32;;;;;;;12.07;10.77;;;;;;;18.54;100.00;150706.59;4985639;28;20207;-64
2023/09/09 07:00:59;;;;;;;11.87;10.30;;;;;;;18.63;100.00;150727.84;4981526;28;20238;-63
2023/09/09 07:03:26;;;;;;;14.47;10.83;;;;;;;18.70;100.00;150746.66;4984922;28;20313;-63
2023/09/09 07:05:52;;;;;;;11.77;10.57;;;;;;;18.81;100.00;150771.69;4982027;28;20226;-63
2023/09/09 07:08:20;;;;;;;14.10;10.93;;;;;;;18.91;100.00;150796.72;4983837;28;20222;-63
2023/09/09 07:10:50;;;;;;;12.80;10.90;;;;;;;19.03;100.00;150826.84;4982338;28;20289;-63
2023/09/09 07:13:17;;;;;;;12.03;10.23;;;;;;;19.13;100.00;150849.31;4984172;28;20226;-64
2023/09/09 07:15:44;;;;;;;12.33;10.37;;;;;;;19.27;100.00;150884.38;4984102;28;20216;-64
2023/09/09 07:18:11;;;;;;;14.30;11.00;;;;;;;19.38;100.00;150909.44;4981413;28;20234;-64
2023/09/09 07:20:38;;;;;;;12.77;11.13;;;;;;;19.50;100.00;150939.47;4985357;28;20595;-64
2023/09/09 07:23:04;;;;;;;13.30;10.80;;;;;;;19.66;100.00;150977.06;4980415;28;20229;-64
2023/09/09 07:25:34;;;;;;;18.07;11.40;;;;;;;19.79;100.00;151009.63;4985413;28;20230;-64
2023/09/09 07:28:00;;;;;;;14.07;11.60;;;;;;;19.93;100.00;151043.47;4980283;28;20229;-64
2023/09/09 07:30:27;;;;;;;11.17;9.80;;;;;;;20.05;100.00;151073.53;4984633;28;20811;-64
2023/09/09 07:32:54;;;;;;;13.00;10.40;;;;;;;20.14;100.00;151094.81;4980779;28;20742;-64
2023/09/09 07:35:20;;;;;;;14.47;12.97;;;;;;;20.26;100.00;151123.66;4984814;28;20219;-64
2023/09/09 07:37:47;;;;;;;13.60;11.83;;;;;;;20.38;100.00;151152.44;4982413;28;20217;-64
2023/09/09 07:40:14;;;;;;;16.67;14.43;;;;;;;20.43;100.00;151164.97;4983545;28;20231;-64
2023/09/09 07:42:42;;;;;;;15.17;13.03;;;;;;;20.57;100.00;151197.56;4984640;28;20222;-64
2023/09/09 07:45:09;;;;;;;16.50;13.47;;;;;;;20.66;100.00;151220.13;4982475;28;20236;-64
2023/09/09 07:47:35;;;;;;;13.17;11.47;;;;;;;20.72;100.00;151235.16;4984030;28;20685;-64
2023/09/09 07:50:02;;;;;;;17.33;13.40;;;;;;;20.82;100.00;151257.75;4981909;28;20225;-64
2023/09/09 07:52:29;;;;;;;15.77;11.50;;;;;;;20.84;100.00;151262.78;4984775;28;20232;-64
2023/09/09 07:54:55;;;;;;;18.60;12.73;;;;;;;20.93;100.00;151285.34;4981715;28;20302;-64
2023/09/09 07:57:22;;;;;;;16.97;12.27;;;;;;;21.01;100.00;151305.38;4984856;28;20226;-64
2023/09/09 07:59:50;;;;;;;14.63;11.43;;;;;;;21.08;100.00;151322.94;4981594;28;20226;-64
2023/09/09 08:02:16;;;;;;;17.17;13.17;;;;;;;21.17;100.00;151344.22;4983364;28;20585;-64
2023/09/09 08:04:43;;;;;;;15.53;12.63;;;;;;;21.23;100.00;151358.00;4987902;28;20227;-64
2023/09/09 08:07:10;;;;;;;15.83;11.70;;;;;;;21.29;100.00;151373.03;4985402;28;20323;-64
2023/09/09 08:09:37;;;;;;;14.23;11.57;;;;;;;21.37;100.00;151393.09;4988105;28;20240;-64
2023/09/09 08:12:04;;;;;;;15.93;13.03;;;;;;;21.39;100.00;151398.09;4984443;28;20237;-64
2023/09/09 08:14:30;;;;;;;16.17;13.30;;;;;;;21.53;100.00;151430.69;4988144;28;20727;-64
2023/09/09 08:16:58;;;;;;;17.67;12.97;;;;;;;21.55;100.00;151435.72;4983864;28;20227;-64
2023/09/09 08:19:25;;;;;;;17.27;13.20;;;;;;;21.71;99.37;151473.38;4987024;28;20224;-64
2023/09/09 08:21:52;;;;;;;15.20;13.00;;;;;;;21.70;99.59;151470.88;4984419;28;20224;-64
2023/09/09 08:24:18;;;;;;;13.17;11.70;;;;;;;21.81;99.64;151498.47;4986991;28;20290;-64
2023/09/09 08:26:45;;;;;;;14.90;12.07;;;;;;;21.89;99.37;151517.25;4987900;28;20261;-64
2023/09/09 08:29:12;;;;;;;14.43;12.73;;;;;;;21.92;96.07;151526.06;4985493;28;20230;-64
2023/09/09 08:31:38;;;;;;;16.47;11.73;;;;;;;22.06;97.28;151558.66;4987706;28;20229;-64
2023/09/09 08:34:08;;;;;;;14.53;12.43;;;;;;;22.14;95.00;151577.44;4983521;28;20232;-64
2023/09/09 08:36:35;;;;;;;13.90;12.37;;;;;;;22.15;94.39;151581.22;4987633;28;20218;-64
2023/09/09 08:39:08;;;;;;;13.97;11.87;;;;;;;22.26;94.60;151608.78;4985009;28;20226;-64
2023/09/09 08:41:49;;;;;;;12.37;11.13;;;;;;;22.38;94.38;151637.66;4986985;28;20228;-64
2023/09/09 08:44:26;;;;;;;17.30;12.60;;;;;;;22.38;92.82;151637.66;4984773;28;20287;-64
2023/09/09 08:46:54;;;;;;;13.63;12.17;;;;;;;22.39;92.79;151640.16;4983451;28;20223;-64
2023/09/09 08:49:23;;;;;;;12.93;11.47;;;;;;;22.55;92.03;151677.84;4987389;28;20251;-64
2023/09/09 08:51:54;;;;;;;14.47;11.50;;;;;;;22.55;91.56;151677.84;4984231;28;20218;-64
2023/09/09 08:54:21;;;;;;;15.30;11.10;;;;;;;22.64;91.27;151699.16;4986933;28;20216;-64
2023/09/09 08:56:49;;;;;;;16.00;11.90;;;;;;;22.67;90.96;151706.66;4984445;28;20233;-64
2023/09/09 08:59:16;;;;;;;16.57;11.90;;;;;;;22.76;91.76;151728.03;4987271;28;20814;-64
2023/09/09 09:01:43;;;;;;;15.10;12.03;;;;;;;22.80;91.15;151739.28;4985977;28;20238;-64
2023/09/09 09:04:11;;;;;;;13.60;11.47;;;;;;;22.95;89.68;151774.44;4982905;28;20238;-64
2023/09/09 09:06:41;;;;;;;15.43;11.40;;;;;;;22.96;90.57;151778.16;4986617;28;20230;-64
2023/09/09 09:09:07;;;;;;;14.63;11.47;;;;;;;23.06;90.07;151802.03;4984299;28;20241;-64
2023/09/09 09:11:34;;;;;;;13.07;11.77;;;;;;;23.15;90.72;151824.63;4987108;28;20290;-64
2023/09/09 09:14:07;;;;;;;13.37;10.83;;;;;;;23.22;90.34;151840.91;4983443;28;20244;-64
2023/09/09 09:16:38;;;;;;;13.13;11.70;;;;;;;23.32;88.67;151863.53;4986394;28;20265;-64
2023/09/09 09:19:15;;;;;;;15.37;11.50;;;;;;;23.43;88.63;151892.38;4983002;28;20630;-64
2023/09/09 09:21:44;;;;;;;14.77;11.93;;;;;;;23.50;87.31;151908.72;4986234;28;20234;-64
2023/09/09 09:24:10;;;;;;;15.83;12.00;;;;;;;23.53;87.69;151914.97;4983862;28;20263;-64
2023/09/09 09:26:38;;;;;;;13.47;11.73;;;;;;;23.69;86.86;151953.91;4987000;28;21044;-64
2023/09/09 09:29:07;;;;;;;16.33;12.63;;;;;;;23.58;86.72;151928.81;4982493;28;20242;-64
2023/09/09 09:31:34;;;;;;;17.83;11.77;;;;;;;23.72;86.91;151962.69;4986119;28;20576;-64
2023/09/09 09:34:04;;;;;;;15.80;11.80;;;;;;;23.82;86.96;151986.56;4982317;28;20239;-64
2023/09/09 09:36:31;;;;;;;17.90;12.27;;;;;;;23.89;83.90;152002.84;4986475;28;20247;-64
2023/09/09 09:38:59;;;;;;;14.40;12.30;;;;;;;23.94;84.18;152014.13;4983525;28;20227;-64
2023/09/09 09:41:26;;;;;;;13.00;11.63;;;;;;;23.97;83.80;152021.66;4986283;28;20227;-64
2023/09/09 09:43:53;;;;;;;13.03;11.07;;;;;;;24.06;83.62;152044.31;4982890;28;20251;-64
2023/09/09 09:46:21;;;;;;;16.93;12.40;;;;;;;24.09;82.63;152051.84;4961106;28;20298;-64
2023/09/09 09:48:49;;;;;;;16.17;12.33;;;;;;;24.14;82.31;152064.38;4981131;28;20223;-67
2023/09/09 09:51:15;;;;;;;14.27;12.00;;;;;;;24.26;82.03;152093.28;4985831;28;20243;-65
2023/09/09 09:53:52;;;;;;;14.10;11.93;;;;;;;24.21;81.93;152079.44;4985863;28;20223;-65
2023/09/09 09:56:20;;;;;;;14.43;11.57;;;;;;;24.15;81.97;152066.91;4983693;28;20685;-65
2023/09/09 09:58:49;;;;;;;14.87;12.43;;;;;;;24.19;81.15;152075.72;4983440;28;20641;-65
2023/09/09 10:01:16;;;;;;;13.43;11.27;;;;;;;24.18;81.63;152073.19;4985430;28;20242;-65
2023/09/09 10:03:48;;;;;;;17.27;11.53;;;;;;;24.17;82.62;152070.69;5000326;23;20249;-61
2023/09/09 10:06:19;;;;;;;13.07;11.47;;;;;;;24.28;81.72;152098.31;4993996;28;20241;-60
2023/09/09 10:08:50;;;;;;;14.20;11.03;;;;;;;24.37;80.55;152118.41;4977558;28;20312;-61
2023/09/09 10:11:25;;;;;;;15.50;10.67;;;;;;;24.45;80.33;152138.44;4992160;28;20319;-60
2023/09/09 10:13:57;;;;;;;12.43;10.47;;;;;;;24.53;80.43;152158.53;4993800;28;20229;-60
2023/09/09 10:16:25;;;;;;;14.77;11.80;;;;;;;24.40;81.01;152127.16;4996371;28;20224;-59
2023/09/09 10:18:53;;;;;;;15.20;11.23;;;;;;;24.53;80.88;152157.31;4992460;28;20540;-59
2023/09/09 10:21:21;;;;;;;12.67;11.33;;;;;;;24.65;79.34;152187.44;4994270;28;20343;-60
2023/09/09 10:23:49;;;;;;;12.07;10.63;;;;;;;24.65;79.30;152187.44;4996084;28;20234;-60
2023/09/09 10:26:18;;;;;;;12.03;10.73;;;;;;;24.57;80.16;152168.59;4997327;28;20238;-59
2023/09/09 10:28:48;;;;;;;17.37;11.00;;;;;;;24.55;81.03;152163.56;4996347;28;20442;-61
2023/09/09 10:31:15;;;;;;;12.97;11.27;;;;;;;24.74;78.87;152210.09;4995495;28;20243;-59
2023/09/09 10:33:43;;;;;;;11.63;10.40;;;;;;;24.95;79.09;152259.06;4993243;28;20224;-59
2023/09/09 10:36:10;;;;;;;12.80;11.50;;;;;;;24.91;79.80;152251.53;4993814;28;20747;-60
2023/09/09 10:38:36;;;;;;;14.47;11.57;;;;;;;25.03;78.71;152280.38;4997260;28;20257;-60
2023/09/09 10:41:03;;;;;;;16.90;11.90;;;;;;;24.93;80.13;152255.25;4994003;28;20240;-59
2023/09/09 10:43:30;;;;;;;11.60;10.40;;;;;;;25.07;79.16;152289.22;4977762;28;20237;-60
2023/09/09 10:45:58;;;;;;;12.17;10.87;;;;;;;25.01;80.91;152275.38;4993556;28;20571;-59
2023/09/09 10:48:27;;;;;;;12.93;11.23;;;;;;;25.18;80.96;152316.84;4996894;28;20226;-59
2023/09/09 10:50:54;;;;;;;13.23;11.13;;;;;;;25.34;79.08;152354.53;4997360;28;20241;-60
2023/09/09 10:53:23;;;;;;;11.57;10.40;;;;;;;25.47;78.35;152385.97;4998531;28;20225;-60
2023/09/09 10:55:52;;;;;;;11.93;10.63;;;;;;;25.41;79.20;152372.13;4993927;28;20243;-60
2023/09/09 10:58:20;;;;;;;12.23;11.00;;;;;;;25.66;77.52;152431.19;4997391;28;20236;-60
2023/09/09 11:00:49;;;;;;;12.70;10.57;;;;;;;25.71;79.44;152445.00;4992230;28;20235;-60
2023/09/09 11:03:23;;;;;;;12.57;11.23;;;;;;;25.90;76.30;152491.50;4991110;28;20764;-60
2023/09/09 11:06:03;;;;;;;14.17;11.50;;;;;;;25.93;76.20;152499.06;4991181;28;20818;-61